Terminal Aerodrome Forecast
Issued by NWS

Home | Current Version | Previous Version | Text Only | Print | Product List | Glossary On
Versions: 1 2 3 4 5 6 7 8 9 10 11 12 13 14 15 16 17 18 19 20 21 22 23 24 25 26 27 28 29
645
FTUS41 KBUF 010107 AAB
TAFIAG
TAF AMD
KIAG 010107Z 0101/0124 06014G22KT P6SM VCSH BKN007 BKN060
     FM010400 11007KT P6SM VCSH BKN050 WS020/21040KT
     FM010600 17005KT P6SM BKN050 WS020/21040KT
     FM011200 18008KT P6SM OVC070
     FM011500 19013G20KT P6SM OVC070
     FM011700 20013G20KT P6SM VCSH OVC040
     FM011900 21013G20KT 4SM SHRA VCTS OVC025CB=

USA.gov is the U.S. government's official web portal to all federal, state and local government web resources and services.